.
WxDataArchive / Data Records for 2008-03-04
2008-03-03 March 2008 2008-03-05

Data Records for Tuesday, 04 March 2008

Time	Temp	Chill	HIndex	Humid	Dewpt	 Wind 	HiWind	WindDir	Rain 	Barom 
-----	----	-----	------	-----	-----	------	------	-------	-----	----- 
00:00	31.0	31.0	31.0	93	29.2	0	3	292	0.00	29.905 
00:05	31.0	31.0	31.0	93	29.2	0	3	315	0.00	29.913 
00:10	31.0	31.0	31.0	93	29.2	0	3	270	0.00	29.912 
00:15	31.0	31.0	31.0	92	29.0	0	2	292	0.00	29.915 
00:20	30.9	30.9	30.9	92	28.9	0	2	292	0.00	29.914 
00:25	30.9	30.9	30.9	92	28.9	0	2	0	0.00	29.908 
00:30	30.9	30.9	30.9	92	28.9	0	3	338	0.00	29.908 
00:35	30.9	30.9	30.9	92	28.9	0	1	338	0.00	29.916 
00:40	30.9	30.9	30.9	92	28.9	0	2	338	0.00	29.912 
00:45	30.9	30.9	30.9	92	28.9	0	2	338	0.00	29.917 
00:50	30.9	30.9	30.9	91	28.6	0	4	292	0.00	29.923 
00:55	30.9	30.9	30.9	91	28.6	1	3	0	0.00	29.924 
01:00	30.9	30.9	30.9	91	28.6	0	2	45	0.00	29.921 
01:05	30.9	30.9	30.9	91	28.6	0	2	22	0.00	29.920 
01:10	30.9	30.9	30.9	91	28.6	1	4	45	0.00	29.916 
01:15	30.9	30.9	30.9	91	28.6	0	2	90	0.00	29.918 
01:20	30.9	30.9	30.9	91	28.6	0	1	45	0.00	29.921 
01:25	30.9	30.9	30.9	91	28.6	0	2	45	0.00	29.915 
01:30	30.9	30.9	30.9	91	28.6	0	2	45	0.00	29.914 
01:35	30.9	30.9	30.9	91	28.6	0	1	112	0.00	29.918 
01:40	30.7	30.7	30.7	91	28.4	0	2	338	0.00	29.922 
01:45	30.7	30.7	30.7	90	28.1	1	3	315	0.00	29.920 
01:50	30.7	30.7	30.7	90	28.1	0	2	315	0.00	29.918 
01:55	30.7	30.7	30.7	89	27.8	0	2	202	0.00	29.917 
02:00	30.7	30.7	30.7	89	27.8	0	3	90	0.00	29.913 
02:05	30.7	30.7	30.7	88	27.6	0	1	68	0.00	29.923 
02:10	30.7	30.7	30.7	88	27.6	1	3	68	0.00	29.914 
02:15	30.7	30.7	30.7	88	27.6	0	3	292	0.00	29.942 
02:20	30.7	30.7	30.7	88	27.6	0	2	270	0.00	29.929 
02:25	30.7	30.7	30.7	88	27.6	1	3	90	0.00	29.923 
02:30	30.7	30.7	30.7	88	27.6	1	2	135	0.00	29.918 
02:35	30.7	30.7	30.7	88	27.6	0	2	135	0.00	29.923 
02:40	30.7	30.7	30.7	88	27.6	0	4	68	0.00	29.923 
02:45	30.7	30.7	30.7	88	27.6	0	2	68	0.00	29.925 
02:50	30.7	30.7	30.7	88	27.6	0	2	68	0.00	29.922 
02:55	30.7	30.7	30.7	88	27.6	1	4	68	0.00	29.913 
03:00	30.7	30.7	30.7	88	27.6	1	3	112	0.00	29.913 
03:05	30.7	30.7	30.7	88	27.6	0	2	135	0.00	29.914 
03:10	30.7	30.7	30.7	88	27.6	0	1	135	0.00	29.915 
03:15	30.7	30.7	30.7	88	27.6	0	1	68	0.00	29.913 
03:20	30.7	30.7	30.7	88	27.6	0	2	68	0.00	29.896 
03:25	30.7	30.7	30.7	88	27.6	0	1	68	0.00	29.900 
03:30	30.7	30.7	30.7	88	27.6	1	3	90	0.00	29.898 
03:35	30.7	30.7	30.7	88	27.6	0	3	90	0.00	29.899 
03:40	30.7	30.7	30.7	87	27.3	1	3	22	0.00	29.904 
03:45	30.7	30.7	30.7	86	27.0	2	6	22	0.00	29.889 
03:50	30.7	30.7	30.7	86	27.0	1	6	22	0.00	29.899 
03:55	30.7	30.7	30.7	85	26.7	1	5	45	0.00	29.896 
04:00	30.7	30.7	30.7	84	26.4	2	7	68	0.00	29.886 
04:05	30.7	30.7	30.7	84	26.4	0	3	45	0.00	29.890 
04:10	30.6	30.6	30.6	84	26.4	2	6	45	0.00	29.897 
04:15	30.6	30.6	30.6	84	26.4	2	6	68	0.00	29.899 
04:20	30.6	30.6	30.6	84	26.4	1	4	112	0.00	29.901 
04:25	30.4	30.4	30.4	84	26.2	1	3	45	0.00	29.900 
04:30	30.4	30.4	30.4	84	26.2	2	5	90	0.00	29.905 
04:35	30.4	30.4	30.4	84	26.2	2	6	45	0.00	29.901 
04:40	30.4	30.4	30.4	84	26.2	1	4	112	0.00	29.906 
04:45	30.3	30.3	30.3	83	25.8	2	6	45	0.00	29.913 
04:50	30.3	30.3	30.3	83	25.8	1	6	112	0.00	29.916 
04:55	30.3	30.3	30.3	83	25.8	2	6	112	0.00	29.915 
05:00	30.1	30.1	30.1	83	25.6	1	6	68	0.00	29.915 
05:05	30.1	30.1	30.1	82	25.3	2	5	45	0.00	29.916 
05:10	30.1	30.1	30.1	82	25.3	2	5	45	0.00	29.910 
05:15	30.1	30.1	30.1	82	25.3	1	4	112	0.00	29.906 
05:20	30.0	30.0	30.0	82	25.2	2	5	112	0.00	29.911 
05:25	30.0	30.0	30.0	82	25.2	2	4	90	0.00	29.905 
05:30	30.0	30.0	30.0	82	25.2	2	6	135	0.00	29.909 
05:35	29.8	29.8	29.8	81	24.7	2	5	135	0.00	29.910 
05:40	29.8	29.8	29.8	82	25.0	1	6	90	0.00	29.918 
05:45	29.8	29.8	29.8	82	25.0	1	4	90	0.00	29.917 
05:50	29.8	29.8	29.8	82	25.0	2	4	45	0.00	29.920 
05:55	29.8	29.8	29.8	82	25.0	1	5	22	0.00	29.917 
06:00	29.8	29.8	29.8	82	25.0	2	4	135	0.00	29.917 
06:05	29.8	29.8	29.8	83	25.3	2	5	45	0.00	29.912 
06:10	29.8	29.8	29.8	83	25.3	2	10	112	0.00	29.914 
06:15	29.8	29.8	29.8	83	25.3	2	7	90	0.00	29.916 
06:20	29.8	29.8	29.8	84	25.6	2	5	90	0.00	29.915 
06:25	29.8	29.8	29.8	84	25.6	2	7	45	0.00	29.917 
06:30	30.0	30.0	30.0	84	25.8	1	5	135	0.00	29.919 
06:35	30.0	30.0	30.0	84	25.8	2	6	45	0.00	29.927 
06:40	30.0	30.0	30.0	84	25.8	1	5	45	0.00	29.924 
06:45	30.0	30.0	30.0	84	25.8	2	4	135	0.00	29.922 
06:50	30.0	30.0	30.0	84	25.8	2	9	22	0.00	29.919 
06:55	30.1	30.1	30.1	84	25.9	3	10	90	0.00	29.918 
07:00	30.1	30.1	30.1	85	26.1	2	7	45	0.00	29.920 
07:05	30.1	30.1	30.1	85	26.1	2	6	45	0.00	29.918 
07:10	30.1	30.1	30.1	85	26.1	3	9	45	0.00	29.906 
07:15	30.1	30.1	30.1	85	26.1	3	7	112	0.00	29.902 
07:20	30.1	30.1	30.1	85	26.1	2	6	90	0.00	29.903 
07:25	30.1	25.9	30.1	85	26.1	4	11	45	0.00	29.902 
07:30	30.3	26.1	30.3	85	26.3	4	10	22	0.00	29.905 
07:35	30.3	26.1	30.3	85	26.3	4	10	68	0.00	29.903 
07:40	30.3	30.3	30.3	85	26.3	3	7	45	0.00	29.902 
07:45	30.3	30.3	30.3	85	26.3	3	8	112	0.00	29.900 
07:50	30.3	26.1	30.3	85	26.3	4	9	112	0.00	29.902 
07:55	30.3	30.3	30.3	85	26.3	3	11	112	0.00	29.901 
08:00	30.3	30.3	30.3	85	26.3	3	12	45	0.00	29.901 
08:05	30.3	26.1	30.3	86	26.6	4	10	112	0.00	29.903 
08:10	30.4	30.4	30.4	86	26.7	3	11	22	0.00	29.904 
08:15	30.4	26.2	30.4	87	27.0	4	10	90	0.00	29.909 
08:20	30.4	23.6	30.4	87	27.0	7	18	112	0.00	29.908 
08:25	30.4	24.3	30.4	86	26.7	6	15	112	0.00	29.907 
08:30	30.3	23.4	30.3	85	26.3	7	16	112	0.00	29.905 
08:35	30.3	26.1	30.3	83	25.8	4	15	112	0.00	29.904 
08:40	30.3	24.2	30.3	81	25.2	6	14	112	0.00	29.905 
08:45	30.4	24.3	30.4	79	24.7	6	14	112	0.00	29.905 
08:50	30.3	23.4	30.3	78	24.3	7	16	112	0.00	29.902 
08:55	30.1	24.0	30.1	78	24.1	6	19	112	0.00	29.894 
09:00	30.1	23.2	30.1	77	23.8	7	19	112	0.00	29.896 
09:05	30.0	23.1	30.0	77	23.7	7	20	112	0.00	29.900 
09:10	29.8	23.6	29.8	77	23.5	6	14	112	0.00	29.901 
09:15	30.0	23.8	30.0	78	24.0	6	16	112	0.00	29.905 
09:20	29.8	24.5	29.8	77	23.5	5	15	112	0.00	29.905 
09:25	29.7	23.5	29.7	77	23.4	6	19	112	0.00	29.905 
09:30	29.7	22.7	29.7	76	23.1	7	17	112	0.00	29.902 
09:35	29.5	24.1	29.5	77	23.2	5	12	112	0.00	29.902 
09:40	29.5	24.1	29.5	77	23.2	5	13	112	0.00	29.905 
09:45	29.5	22.5	29.5	76	22.9	7	16	112	0.00	29.903 
09:50	29.5	24.1	29.5	75	22.6	5	15	112	0.00	29.904 
09:55	29.4	23.1	29.4	75	22.5	6	16	112	0.00	29.897 
10:00	29.5	22.5	29.5	76	22.9	7	14	112	0.00	29.899 
10:05	29.5	24.1	29.5	76	22.9	5	17	112	0.00	29.898 
10:10	29.5	24.1	29.5	76	22.9	5	13	112	0.00	29.903 
10:15	29.5	24.1	29.5	77	23.2	5	13	112	0.00	29.891 
10:20	29.5	24.1	29.5	77	23.2	5	10	112	0.00	29.893 
10:25	29.4	23.1	29.4	76	22.8	6	15	112	0.00	29.889 
10:30	29.4	23.1	29.4	76	22.8	6	15	22	0.00	29.887 
10:35	29.4	23.1	29.4	77	23.1	6	15	112	0.00	29.889 
10:40	29.4	25.1	29.4	76	22.8	4	12	90	0.00	29.888 
10:45	29.4	22.4	29.4	77	23.1	7	19	112	0.00	29.877 
10:50	29.7	23.5	29.7	77	23.4	6	14	112	0.00	29.875 
10:55	29.7	22.0	29.7	75	22.8	8	19	90	0.00	29.881 
11:00	29.5	21.8	29.5	75	22.6	8	18	112	0.00	29.879 
11:05	29.7	24.4	29.7	76	23.1	5	12	112	0.00	29.890 
11:10	29.5	23.3	29.5	75	22.6	6	14	112	0.00	29.891 
11:15	29.5	23.3	29.5	74	22.3	6	16	112	0.00	29.890 
11:20	29.4	22.4	29.4	73	21.8	7	17	112	0.00	29.888 
11:25	29.5	24.1	29.5	73	21.9	5	17	22	0.00	29.888 
11:30	29.5	21.8	29.5	73	21.9	8	16	112	0.00	29.876 
11:35	29.7	25.4	29.7	76	23.1	4	11	68	0.00	29.867 
11:40	29.7	25.4	29.7	75	22.8	4	11	90	0.00	29.867 
11:45	29.7	25.4	29.7	75	22.8	4	12	112	0.00	29.869 
11:50	29.5	23.3	29.5	76	22.9	6	16	112	0.00	29.872 
11:55	29.3	22.2	29.3	76	22.7	7	17	112	0.00	29.871 
12:00	29.3	23.0	29.3	76	22.7	6	12	112	0.00	29.870 
12:05	29.3	23.9	29.3	77	23.0	5	13	112	0.00	29.861 
12:10	29.1	22.8	29.1	77	22.8	6	14	112	0.00	29.859 
12:15	29.1	22.0	29.1	77	22.8	7	18	112	0.00	29.844 
12:20	29.3	22.2	29.3	76	22.7	7	16	90	0.00	29.842 
12:25	29.3	21.6	29.3	76	22.7	8	21	112	0.00	29.842 
12:30	29.3	21.6	29.3	77	23.0	8	21	112	0.00	29.832 
12:35	29.3	22.2	29.3	77	23.0	7	19	112	0.00	29.828 
12:40	29.3	23.0	29.3	76	22.7	6	18	112	0.00	29.830 
12:45	29.1	22.8	29.1	77	22.8	6	15	112	0.00	29.827 
12:50	29.1	24.7	29.1	77	22.8	4	9	22	0.00	29.816 
12:55	29.3	23.0	29.3	77	23.0	6	17	112	0.00	29.811 
13:00	29.1	20.7	29.1	76	22.5	9	18	112	0.00	29.798 
13:05	29.0	21.2	29.0	77	22.7	8	17	112	0.00	29.795 
13:10	28.8	20.9	28.8	77	22.5	8	21	112	0.00	29.790 
13:15	28.7	21.5	28.7	77	22.4	7	15	112	0.00	29.794 
13:20	28.5	20.6	28.5	77	22.2	8	19	112	0.00	29.795 
13:25	28.4	21.2	28.4	75	21.5	7	16	112	0.00	29.798 
13:30	28.5	23.0	28.5	77	22.2	5	17	112	0.00	29.796 
13:35	28.5	20.6	28.5	76	21.9	8	21	112	0.00	29.787 
13:40	28.5	24.0	28.5	77	22.2	4	10	112	0.00	29.780 
13:45	28.5	24.0	28.5	77	22.2	4	16	22	0.00	29.775 
13:50	28.2	20.9	28.2	74	21.0	7	15	90	0.00	29.771 
13:55	28.4	21.9	28.4	74	21.2	6	15	112	0.00	29.775 
14:00	28.2	20.2	28.2	73	20.7	8	17	112	0.00	29.770 
14:05	28.2	21.7	28.2	73	20.7	6	26	112	0.00	29.768 
14:10	28.2	20.9	28.2	74	21.0	7	14	112	0.00	29.765 
14:15	28.1	21.6	28.1	73	20.6	6	18	90	0.00	29.751 
14:20	28.1	20.1	28.1	74	20.9	8	18	112	0.00	29.741 
14:25	28.1	21.6	28.1	75	21.2	6	18	22	0.00	29.736 
14:30	28.1	20.8	28.1	75	21.2	7	15	90	0.00	29.735 
14:35	28.1	22.5	28.1	76	21.5	5	14	112	0.00	29.735 
14:40	27.9	21.3	27.9	77	21.6	6	17	112	0.00	29.737 
14:45	27.8	20.4	27.8	77	21.5	7	15	112	0.00	29.739 
14:50	27.6	20.2	27.6	77	21.4	7	16	112	0.00	29.746 
14:55	27.6	20.2	27.6	77	21.4	7	16	112	0.00	29.749 
15:00	27.6	21.0	27.6	78	21.7	6	13	112	0.00	29.737 
15:05	27.5	20.9	27.5	79	21.9	6	15	112	0.00	29.739 
15:10	27.3	21.6	27.3	80	22.0	5	13	112	0.00	29.734 
15:15	27.2	20.5	27.2	82	22.4	6	14	112	0.00	29.736 
15:20	26.9	21.1	26.9	84	22.7	5	12	22	0.00	29.737 
15:25	26.6	21.8	26.6	86	23.0	4	11	90	0.00	29.733 
15:30	26.3	19.4	26.3	88	23.2	6	15	45	0.00	29.729 
15:35	26.3	21.5	26.3	89	23.5	4	12	112	0.00	29.731 
15:40	26.1	20.1	26.1	90	23.6	5	13	112	0.00	29.723 
15:45	26.1	20.1	26.1	90	23.6	5	13	112	0.00	29.713 
15:50	26.1	20.1	26.1	90	23.6	5	14	22	0.00	29.707 
15:55	26.3	26.3	26.3	90	23.8	3	10	45	0.00	29.696 
16:00	26.3	20.4	26.3	90	23.8	5	12	45	0.00	29.700 
16:05	26.3	26.3	26.3	90	23.8	3	7	22	0.00	29.702 
16:10	26.4	21.6	26.4	90	23.9	4	12	112	0.00	29.708 
16:15	26.4	26.4	26.4	90	23.9	3	10	45	0.00	29.711 
16:20	26.4	21.6	26.4	90	23.9	4	10	45	0.00	29.708 
16:25	26.4	21.6	26.4	89	23.6	4	9	45	0.00	29.705 
16:30	26.6	21.8	26.6	89	23.8	4	13	45	0.00	29.700 
16:35	26.6	21.8	26.6	89	23.8	4	9	22	0.00	29.700 
16:40	26.6	21.8	26.6	89	23.8	4	11	22	0.00	29.691 
16:45	26.6	21.8	26.6	89	23.8	4	15	112	0.00	29.691 
16:50	26.6	20.7	26.6	89	23.8	5	11	22	0.00	29.692 
16:55	26.7	19.9	26.7	88	23.6	6	13	45	0.00	29.695 
17:00	26.7	22.0	26.7	88	23.6	4	11	45	0.00	29.701 
17:05	26.9	22.2	26.9	88	23.8	4	12	112	0.00	29.705 
17:10	26.9	20.2	26.9	87	23.6	6	15	90	0.00	29.705 
17:15	27.0	22.3	27.0	87	23.7	4	10	45	0.00	29.704 
17:20	27.0	27.0	27.0	87	23.7	3	9	22	0.00	29.701 
17:25	27.0	21.2	27.0	87	23.7	5	13	68	0.00	29.696 
17:30	26.9	21.1	26.9	87	23.6	5	11	68	0.00	29.692 
17:35	26.9	22.2	26.9	87	23.6	4	11	68	0.00	29.689 
17:40	26.9	21.1	26.9	86	23.3	5	12	45	0.00	29.682 
17:45	26.7	22.0	26.7	86	23.1	4	11	45	0.00	29.679 
17:50	26.7	22.0	26.7	87	23.4	4	13	45	0.00	29.676 
17:55	26.7	22.0	26.7	87	23.4	4	10	112	0.00	29.681 
18:00	26.6	21.8	26.6	87	23.3	4	11	45	0.00	29.682 
18:05	26.6	21.8	26.6	87	23.3	4	11	112	0.00	29.683 
18:10	26.6	26.6	26.6	87	23.3	3	11	45	0.00	29.688 
18:15	26.6	20.7	26.6	87	23.3	5	15	22	0.00	29.689 
18:20	26.6	21.8	26.6	87	23.3	4	11	68	0.00	29.687 
18:25	26.6	20.7	26.6	87	23.3	5	13	112	0.00	29.676 
18:30	26.4	21.6	26.4	87	23.1	4	10	45	0.00	29.671 
18:35	26.4	20.5	26.4	87	23.1	5	14	68	0.00	29.656 
18:40	26.4	21.6	26.4	86	22.8	4	12	22	0.00	29.643 
18:45	26.3	21.5	26.3	86	22.7	4	14	0	0.00	29.639 
18:50	26.3	21.5	26.3	86	22.7	4	11	112	0.00	29.645 
18:55	26.3	21.5	26.3	86	22.7	4	10	45	0.00	29.653 
19:00	26.1	26.1	26.1	86	22.5	3	8	45	0.00	29.663 
19:05	26.0	26.0	26.0	87	22.7	3	9	90	0.00	29.671 
19:10	26.0	21.1	26.0	86	22.4	4	12	45	0.00	29.682 
19:15	25.8	20.9	25.8	86	22.2	4	9	90	0.00	29.676 
19:20	25.8	25.8	25.8	86	22.2	2	10	68	0.00	29.675 
19:25	25.8	25.8	25.8	87	22.5	2	6	45	0.00	29.673 
19:30	25.7	25.7	25.7	87	22.4	2	7	135	0.00	29.674 
19:35	25.6	25.6	25.6	88	22.5	3	10	45	0.00	29.676 
19:40	25.4	25.4	25.4	88	22.4	3	7	22	0.00	29.675 
19:45	25.4	25.4	25.4	88	22.4	2	7	45	0.00	29.660 
19:50	25.3	25.3	25.3	89	22.5	3	8	68	0.00	29.660 
19:55	25.3	25.3	25.3	89	22.5	2	9	68	0.00	29.655 
20:00	25.3	25.3	25.3	89	22.5	1	4	45	0.00	29.654 
20:05	25.3	25.3	25.3	89	22.5	1	4	0	0.00	29.650 
20:10	25.3	25.3	25.3	89	22.5	2	9	338	0.00	29.645 
20:15	25.3	25.3	25.3	89	22.5	2	6	22	0.00	29.648 
20:20	25.3	25.3	25.3	89	22.5	2	6	22	0.00	29.645 
20:25	25.3	25.3	25.3	88	22.3	2	8	338	0.00	29.638 
20:30	25.3	25.3	25.3	87	22.0	3	9	112	0.00	29.627 
20:35	25.3	25.3	25.3	87	22.0	3	11	68	0.00	29.628 
20:40	25.3	25.3	25.3	87	22.0	2	5	45	0.00	29.633 
20:45	25.3	25.3	25.3	87	22.0	3	9	0	0.00	29.638 
20:50	25.3	19.2	25.3	86	21.7	5	15	135	0.00	29.641 
20:55	25.3	20.3	25.3	85	21.4	4	13	90	0.00	29.644 
21:00	25.4	25.4	25.4	85	21.5	3	9	112	0.00	29.645 
21:05	25.4	25.4	25.4	85	21.5	2	7	22	0.00	29.645 
21:10	25.4	25.4	25.4	86	21.8	2	9	45	0.00	29.644 
21:15	25.3	25.3	25.3	86	21.7	3	6	22	0.00	29.648 
21:20	25.3	25.3	25.3	85	21.4	2	9	22	0.00	29.654 
21:25	25.1	25.1	25.1	85	21.2	2	7	45	0.00	29.658 
21:30	25.0	25.0	25.0	85	21.1	3	9	112	0.00	29.658 
21:35	25.0	25.0	25.0	86	21.4	3	9	0	0.00	29.652 
21:40	24.8	24.8	24.8	87	21.5	1	6	338	0.00	29.656 
21:45	24.7	24.7	24.7	88	21.7	2	11	45	0.00	29.662 
21:50	24.7	24.7	24.7	88	21.7	1	3	0	0.00	29.671 
21:55	24.7	24.7	24.7	89	21.9	1	7	112	0.00	29.673 
22:00	24.5	24.5	24.5	89	21.7	1	6	22	0.00	29.672 
22:05	24.5	24.5	24.5	89	21.7	1	5	22	0.00	29.667 
22:10	24.5	24.5	24.5	89	21.7	1	3	0	0.00	29.662 
22:15	24.5	24.5	24.5	90	22.0	1	7	0	0.00	29.656 
22:20	24.4	24.4	24.4	90	21.9	1	7	338	0.00	29.662 
22:25	24.2	24.2	24.2	90	21.7	1	9	0	0.00	29.670 
22:30	24.1	24.1	24.1	90	21.6	1	4	315	0.00	29.673 
22:35	23.9	23.9	23.9	90	21.4	1	3	22	0.00	29.680 
22:40	23.9	23.9	23.9	90	21.4	1	3	45	0.00	29.677 
22:45	23.9	23.9	23.9	91	21.7	1	4	338	0.00	29.678 
22:50	23.9	23.9	23.9	91	21.7	1	3	338	0.00	29.680 
22:55	23.9	23.9	23.9	91	21.7	1	3	338	0.00	29.685 
23:00	23.9	23.9	23.9	91	21.7	0	2	338	0.00	29.691 
23:05	23.9	23.9	23.9	91	21.7	0	3	315	0.00	29.694 
23:10	23.8	23.8	23.8	91	21.6	0	2	315	0.00	29.707 
23:15	23.8	23.8	23.8	91	21.6	0	2	315	0.00	29.708 
23:20	23.8	23.8	23.8	91	21.6	1	3	270	0.00	29.713 
23:25	23.8	23.8	23.8	91	21.6	1	2	0	0.00	29.705 
23:30	23.6	23.6	23.6	91	21.4	1	5	292	0.00	29.712 
23:35	23.6	23.6	23.6	91	21.4	1	3	315	0.00	29.709 
23:40	23.6	23.6	23.6	92	21.6	0	2	0	0.00	29.709 
23:45	23.6	23.6	23.6	92	21.6	0	2	338	0.00	29.706 
23:50	23.6	23.6	23.6	92	21.6	1	3	338	0.00	29.707 
23:55	23.6	23.6	23.6	92	21.6	0	2	315	0.00	29.705 

CoCoRaHS
IN-AL-39
A2 Web Hosting
Creative Commons License
GoDaddy
Look for:

loaded 2017-12-12 07:12:28 • last modified 2010-11-18 10:43:29
Privacy PolicyDisclaimer
• wx.awcolley.com is powered by PmWiki v.2002016 •
• all content (unless otherwise noted) © 2017 A W Colley